N928CJ KCLE-KSYR
Flight info
| Callsign | N928CJ |
|---|---|
| Flight time | 0h 49m |
| Altitude | 41000 |
| Route | PFLYD1 DUUKR DKK |
| Aircraft | C700/M-SBDGHM1RWXY/LB2 |
Departure
| Time | 2026-04-24 02:21 |
|---|---|
| Airport | Cleveland Hopkins International Airport (KCLE) |
Arrival
| Time | 2026-04-24 03:10 |
|---|---|
| Airport | Syracuse Hancock International Airport (KSYR) |
| Time | Latitude | Longitude | Altitude | Speed | Heading |
|---|---|---|---|---|---|
| 2026-04-24 02:10 | 41.40862 | -81.84132 | 790 ft | 0 kts | 135° |
| 2026-04-24 02:15 | 41.40867 | -81.84138 | 790 ft | 3 kts | 135° |
| 2026-04-24 02:15 | 41.40880 | -81.84156 | 790 ft | 2 kts | 131° |
| 2026-04-24 02:16 | 41.40882 | -81.84176 | 789 ft | 2 kts | 40° |
| 2026-04-24 02:16 | 41.40875 | -81.84181 | 789 ft | 0 kts | 1° |
| 2026-04-24 02:17 | 41.40876 | -81.84181 | 789 ft | 0 kts | 1° |
| 2026-04-24 02:17 | 41.40875 | -81.84181 | 789 ft | 0 kts | 1° |
| 2026-04-24 02:18 | 41.40883 | -81.84191 | 789 ft | 4 kts | 300° |
| 2026-04-24 02:18 | 41.40894 | -81.84284 | 789 ft | 16 kts | 275° |
| 2026-04-24 02:19 | 41.40988 | -81.84379 | 789 ft | 20 kts | 360° |
| 2026-04-24 02:19 | 41.41138 | -81.84382 | 790 ft | 23 kts | 358° |
| 2026-04-24 02:19 | 41.41301 | -81.84335 | 792 ft | 26 kts | 43° |
| 2026-04-24 02:19 | 41.41405 | -81.84181 | 792 ft | 18 kts | 50° |
| 2026-04-24 02:20 | 41.41455 | -81.84145 | 792 ft | 0 kts | 339° |
| 2026-04-24 02:20 | 41.41461 | -81.84149 | 792 ft | 6 kts | 336° |
| 2026-04-24 02:20 | 41.41496 | -81.84256 | 793 ft | 19 kts | 248° |
| 2026-04-24 02:21 | 41.41400 | -81.84421 | 792 ft | 38 kts | 229° |
| 2026-04-24 02:21 | 41.40964 | -81.85104 | 835 ft | 146 kts | 228° |
| 2026-04-24 02:21 | 41.40206 | -81.86369 | 1539 ft | 205 kts | 232° |
| 2026-04-24 02:21 | 41.39427 | -81.88113 | 3010 ft | 224 kts | 244° |
| 2026-04-24 02:22 | 41.39013 | -81.90062 | 5093 ft | 227 kts | 261° |
| 2026-04-24 02:22 | 41.39097 | -81.92275 | 6614 ft | 251 kts | 279° |
| 2026-04-24 02:22 | 41.39407 | -81.94522 | 7307 ft | 241 kts | 279° |
| 2026-04-24 02:22 | 41.39700 | -81.96800 | 7203 ft | 260 kts | 278° |
| 2026-04-24 02:23 | 41.40003 | -81.99159 | 7697 ft | 265 kts | 279° |
| 2026-04-24 02:23 | 41.40320 | -82.01620 | 8254 ft | 270 kts | 279° |
| 2026-04-24 02:23 | 41.40787 | -82.04055 | 8807 ft | 278 kts | 295° |
| 2026-04-24 02:23 | 41.42122 | -82.05915 | 9345 ft | 284 kts | 328° |
| 2026-04-24 02:24 | 41.44042 | -82.06518 | 9893 ft | 291 kts | 1° |
| 2026-04-24 02:24 | 41.45958 | -82.05675 | 10393 ft | 311 kts | 31° |
| 2026-04-24 02:24 | 41.47476 | -82.03546 | 10912 ft | 320 kts | 57° |
| 2026-04-24 02:24 | 41.48490 | -82.00872 | 11457 ft | 328 kts | 66° |
| 2026-04-24 02:25 | 41.49406 | -81.98071 | 12015 ft | 330 kts | 65° |
| 2026-04-24 02:25 | 41.50431 | -81.95334 | 12571 ft | 330 kts | 61° |
| 2026-04-24 02:25 | 41.51580 | -81.92653 | 13692 ft | 331 kts | 59° |
| 2026-04-24 02:25 | 41.52697 | -81.89974 | 15468 ft | 336 kts | 61° |
| 2026-04-24 02:26 | 41.53810 | -81.87148 | 16829 ft | 350 kts | 62° |
| 2026-04-24 02:26 | 41.54958 | -81.84225 | 18249 ft | 362 kts | 61° |
| 2026-04-24 02:26 | 41.56150 | -81.81265 | 19455 ft | 371 kts | 60° |
| 2026-04-24 02:26 | 41.57386 | -81.78203 | 20713 ft | 379 kts | 60° |
| 2026-04-24 02:27 | 41.58639 | -81.75069 | 21870 ft | 387 kts | 60° |
| 2026-04-24 02:27 | 41.59914 | -81.71864 | 23027 ft | 394 kts | 59° |
| 2026-04-24 02:27 | 41.61215 | -81.68600 | 24082 ft | 401 kts | 59° |
| 2026-04-24 02:27 | 41.62540 | -81.65280 | 25063 ft | 408 kts | 59° |
| 2026-04-24 02:28 | 41.63885 | -81.61902 | 26013 ft | 415 kts | 58° |
| 2026-04-24 02:28 | 41.65251 | -81.58462 | 26935 ft | 422 kts | 58° |
| 2026-04-24 02:28 | 41.66620 | -81.55014 | 27851 ft | 429 kts | 58° |
| 2026-04-24 02:28 | 41.68028 | -81.51464 | 28765 ft | 435 kts | 58° |
| 2026-04-24 02:29 | 41.69454 | -81.47864 | 29700 ft | 441 kts | 58° |
| 2026-04-24 02:29 | 41.70900 | -81.44210 | 30486 ft | 448 kts | 58° |
| 2026-04-24 02:29 | 41.72365 | -81.40501 | 31243 ft | 453 kts | 58° |
| 2026-04-24 02:29 | 41.73845 | -81.36751 | 31959 ft | 459 kts | 58° |
| 2026-04-24 02:30 | 41.75342 | -81.32951 | 32648 ft | 464 kts | 58° |
| 2026-04-24 02:30 | 41.76857 | -81.29103 | 33308 ft | 469 kts | 58° |
| 2026-04-24 02:30 | 41.78386 | -81.25212 | 33948 ft | 475 kts | 58° |
| 2026-04-24 02:30 | 41.79930 | -81.21277 | 34484 ft | 479 kts | 58° |
| 2026-04-24 02:31 | 41.81487 | -81.17305 | 35038 ft | 483 kts | 58° |
| 2026-04-24 02:31 | 41.83030 | -81.13361 | 35553 ft | 486 kts | 58° |
| 2026-04-24 02:31 | 41.84598 | -81.09347 | 36240 ft | 484 kts | 58° |
| 2026-04-24 02:31 | 41.86154 | -81.05357 | 36938 ft | 481 kts | 58° |
| 2026-04-24 02:32 | 41.87702 | -81.01386 | 37580 ft | 479 kts | 58° |
| 2026-04-24 02:32 | 41.89241 | -80.97437 | 38129 ft | 477 kts | 58° |
| 2026-04-24 02:32 | 41.90776 | -80.93491 | 38629 ft | 476 kts | 58° |
| 2026-04-24 02:32 | 41.92301 | -80.89560 | 39012 ft | 475 kts | 58° |
| 2026-04-24 02:33 | 41.93806 | -80.85680 | 39349 ft | 474 kts | 58° |
| 2026-04-24 02:33 | 41.95326 | -80.81753 | 39691 ft | 473 kts | 58° |
| 2026-04-24 02:33 | 41.96843 | -80.77830 | 40017 ft | 473 kts | 58° |
| 2026-04-24 02:33 | 41.98356 | -80.73912 | 40336 ft | 472 kts | 58° |
| 2026-04-24 02:34 | 41.99857 | -80.69994 | 40640 ft | 472 kts | 59° |
| 2026-04-24 02:34 | 42.01263 | -80.66002 | 40926 ft | 472 kts | 60° |
| 2026-04-24 02:34 | 42.04116 | -80.57935 | 40967 ft | 483 kts | 60° |
| 2026-04-24 02:35 | 42.07023 | -80.49668 | 40980 ft | 494 kts | 60° |
| 2026-04-24 02:35 | 42.09924 | -80.41387 | 40962 ft | 490 kts | 60° |
| 2026-04-24 02:36 | 42.12818 | -80.33122 | 40959 ft | 488 kts | 60° |
| 2026-04-24 02:36 | 42.15714 | -80.24817 | 40963 ft | 491 kts | 60° |
| 2026-04-24 02:37 | 42.18619 | -80.16460 | 40978 ft | 492 kts | 60° |
| 2026-04-24 02:37 | 42.21491 | -80.08173 | 40966 ft | 490 kts | 60° |
| 2026-04-24 02:38 | 42.24362 | -79.99868 | 40965 ft | 487 kts | 60° |
| 2026-04-24 02:38 | 42.27222 | -79.91571 | 40970 ft | 489 kts | 60° |
| 2026-04-24 02:39 | 42.30094 | -79.83209 | 40971 ft | 492 kts | 60° |
| 2026-04-24 02:39 | 42.32968 | -79.74818 | 40976 ft | 491 kts | 60° |
| 2026-04-24 02:40 | 42.35797 | -79.66531 | 40974 ft | 487 kts | 60° |
| 2026-04-24 02:40 | 42.38633 | -79.58207 | 40975 ft | 489 kts | 60° |
| 2026-04-24 02:41 | 42.41479 | -79.49817 | 40983 ft | 492 kts | 60° |
| 2026-04-24 02:41 | 42.44328 | -79.41395 | 40991 ft | 491 kts | 60° |
| 2026-04-24 02:42 | 42.47140 | -79.33061 | 40984 ft | 489 kts | 60° |
| 2026-04-24 02:42 | 42.49663 | -79.24511 | 40973 ft | 494 kts | 69° |
| 2026-04-24 02:43 | 42.51545 | -79.15530 | 40984 ft | 497 kts | 69° |
| 2026-04-24 02:43 | 42.53450 | -79.06510 | 40989 ft | 499 kts | 69° |
| 2026-04-24 02:44 | 42.55332 | -78.97480 | 40982 ft | 496 kts | 69° |
| 2026-04-24 02:44 | 42.57193 | -78.88574 | 40978 ft | 494 kts | 69° |
| 2026-04-24 02:45 | 42.59057 | -78.79583 | 40990 ft | 497 kts | 69° |
| 2026-04-24 02:45 | 42.60927 | -78.70528 | 40994 ft | 499 kts | 69° |
| 2026-04-24 02:46 | 42.62788 | -78.61470 | 41000 ft | 496 kts | 69° |
| 2026-04-24 02:46 | 42.64617 | -78.52540 | 40994 ft | 493 kts | 69° |
| 2026-04-24 02:47 | 42.66454 | -78.43533 | 41002 ft | 496 kts | 69° |
| 2026-04-24 02:47 | 42.68295 | -78.34457 | 41013 ft | 499 kts | 69° |
| 2026-04-24 02:48 | 42.70125 | -78.25392 | 41011 ft | 496 kts | 69° |
| 2026-04-24 02:48 | 42.71940 | -78.16369 | 41007 ft | 493 kts | 69° |
| 2026-04-24 02:49 | 42.73733 | -78.07415 | 41007 ft | 495 kts | 70° |
| 2026-04-24 02:49 | 42.75541 | -77.98345 | 40943 ft | 499 kts | 70° |
| 2026-04-24 02:50 | 42.76450 | -77.93768 | 40040 ft | 501 kts | 69° |
| 2026-04-24 02:50 | 42.77347 | -77.89225 | 39102 ft | 494 kts | 69° |
| 2026-04-24 02:50 | 42.78233 | -77.84735 | 38094 ft | 487 kts | 69° |
| 2026-04-24 02:50 | 42.79106 | -77.80315 | 37061 ft | 481 kts | 69° |
| 2026-04-24 02:51 | 42.79968 | -77.75947 | 36062 ft | 475 kts | 69° |
| 2026-04-24 02:51 | 42.80806 | -77.71679 | 35137 ft | 472 kts | 69° |
| 2026-04-24 02:51 | 42.81656 | -77.67353 | 34234 ft | 474 kts | 69° |
| 2026-04-24 02:51 | 42.82511 | -77.62990 | 33251 ft | 480 kts | 69° |
| 2026-04-24 02:52 | 42.83375 | -77.58566 | 32289 ft | 486 kts | 69° |
| 2026-04-24 02:52 | 42.84243 | -77.54097 | 31340 ft | 491 kts | 70° |
| 2026-04-24 02:52 | 42.85118 | -77.49583 | 30416 ft | 494 kts | 70° |
| 2026-04-24 02:52 | 42.85999 | -77.45038 | 29424 ft | 496 kts | 70° |
| 2026-04-24 02:53 | 42.86869 | -77.40523 | 28393 ft | 489 kts | 70° |
| 2026-04-24 02:53 | 42.87710 | -77.36145 | 27405 ft | 478 kts | 70° |
| 2026-04-24 02:53 | 42.88546 | -77.31805 | 26445 ft | 469 kts | 69° |
| 2026-04-24 02:53 | 42.89367 | -77.27542 | 25521 ft | 461 kts | 69° |
| 2026-04-24 02:54 | 42.90173 | -77.23341 | 24611 ft | 455 kts | 69° |
| 2026-04-24 02:54 | 42.90967 | -77.19187 | 23779 ft | 450 kts | 69° |
| 2026-04-24 02:54 | 42.91751 | -77.15074 | 22832 ft | 445 kts | 69° |
| 2026-04-24 02:54 | 42.92524 | -77.11010 | 21872 ft | 439 kts | 69° |
| 2026-04-24 02:55 | 42.93282 | -77.07013 | 20958 ft | 431 kts | 69° |
| 2026-04-24 02:55 | 42.94027 | -77.03086 | 20079 ft | 424 kts | 69° |
| 2026-04-24 02:55 | 42.94750 | -76.99271 | 19248 ft | 417 kts | 68° |
| 2026-04-24 02:55 | 42.95468 | -76.95465 | 18441 ft | 411 kts | 68° |
| 2026-04-24 02:56 | 42.96171 | -76.91730 | 17838 ft | 402 kts | 68° |
| 2026-04-24 02:56 | 42.96868 | -76.88037 | 17208 ft | 404 kts | 68° |
| 2026-04-24 02:56 | 42.97571 | -76.84317 | 16475 ft | 404 kts | 68° |
| 2026-04-24 02:56 | 42.98259 | -76.80621 | 15722 ft | 399 kts | 68° |
| 2026-04-24 02:57 | 42.98935 | -76.76983 | 14981 ft | 392 kts | 68° |
| 2026-04-24 02:57 | 42.99604 | -76.73405 | 14263 ft | 386 kts | 67° |
| 2026-04-24 02:57 | 43.00265 | -76.69873 | 13531 ft | 380 kts | 67° |
| 2026-04-24 02:57 | 43.00888 | -76.66497 | 12754 ft | 364 kts | 67° |
| 2026-04-24 02:58 | 43.01495 | -76.63203 | 11980 ft | 351 kts | 67° |
| 2026-04-24 02:58 | 43.02090 | -76.60016 | 11229 ft | 342 kts | 67° |
| 2026-04-24 02:58 | 43.02672 | -76.56896 | 10495 ft | 336 kts | 67° |
| 2026-04-24 02:58 | 43.03236 | -76.53836 | 9999 ft | 324 kts | 68° |
| 2026-04-24 02:59 | 43.03754 | -76.50964 | 9991 ft | 300 kts | 67° |
| 2026-04-24 02:59 | 43.04260 | -76.48237 | 9989 ft | 297 kts | 66° |
| 2026-04-24 02:59 | 43.04782 | -76.45500 | 9992 ft | 304 kts | 66° |
| 2026-04-24 02:59 | 43.05298 | -76.42682 | 9997 ft | 306 kts | 67° |
| 2026-04-24 03:00 | 43.05806 | -76.39863 | 9998 ft | 305 kts | 67° |
| 2026-04-24 03:00 | 43.06356 | -76.37083 | 9987 ft | 297 kts | 59° |
| 2026-04-24 03:00 | 43.07525 | -76.34978 | 9983 ft | 266 kts | 25° |
| 2026-04-24 03:00 | 43.09179 | -76.34190 | 9790 ft | 247 kts | 353° |
| 2026-04-24 03:01 | 43.10726 | -76.34850 | 9557 ft | 230 kts | 322° |
| 2026-04-24 03:01 | 43.11820 | -76.36406 | 9328 ft | 226 kts | 307° |
| 2026-04-24 03:01 | 43.12862 | -76.38002 | 9085 ft | 227 kts | 308° |
| 2026-04-24 03:01 | 43.13381 | -76.40063 | 8841 ft | 239 kts | 279° |
| 2026-04-24 03:02 | 43.13305 | -76.42364 | 8217 ft | 251 kts | 270° |
| 2026-04-24 03:02 | 43.13085 | -76.44751 | 7497 ft | 254 kts | 268° |
| 2026-04-24 03:02 | 43.12848 | -76.47154 | 6790 ft | 256 kts | 268° |
| 2026-04-24 03:02 | 43.12613 | -76.49575 | 6060 ft | 257 kts | 265° |
| 2026-04-24 03:03 | 43.11879 | -76.51843 | 5285 ft | 270 kts | 236° |
| 2026-04-24 03:03 | 43.10358 | -76.53402 | 4533 ft | 281 kts | 206° |
| 2026-04-24 03:03 | 43.08424 | -76.53810 | 3773 ft | 287 kts | 176° |
| 2026-04-24 03:03 | 43.06548 | -76.52942 | 3051 ft | 287 kts | 146° |
| 2026-04-24 03:04 | 43.05307 | -76.51000 | 2974 ft | 260 kts | 114° |
| 2026-04-24 03:04 | 43.04987 | -76.48741 | 2978 ft | 238 kts | 85° |
| 2026-04-24 03:04 | 43.05239 | -76.46523 | 2982 ft | 237 kts | 74° |
| 2026-04-24 03:04 | 43.05719 | -76.44366 | 2978 ft | 238 kts | 66° |
| 2026-04-24 03:05 | 43.06326 | -76.42257 | 2941 ft | 239 kts | 64° |
| 2026-04-24 03:05 | 43.06929 | -76.40220 | 2820 ft | 223 kts | 64° |
| 2026-04-24 03:05 | 43.07499 | -76.38286 | 2710 ft | 218 kts | 64° |
| 2026-04-24 03:05 | 43.08069 | -76.36362 | 2606 ft | 219 kts | 64° |
| 2026-04-24 03:06 | 43.08638 | -76.34427 | 2503 ft | 219 kts | 64° |
| 2026-04-24 03:06 | 43.09206 | -76.32497 | 2399 ft | 218 kts | 64° |
| 2026-04-24 03:06 | 43.09765 | -76.30602 | 2300 ft | 217 kts | 64° |
| 2026-04-24 03:06 | 43.10194 | -76.28671 | 2308 ft | 209 kts | 76° |
| 2026-04-24 03:07 | 43.10379 | -76.26643 | 2276 ft | 190 kts | 82° |
| 2026-04-24 03:07 | 43.10354 | -76.25091 | 1993 ft | 144 kts | 86° |
| 2026-04-24 03:07 | 43.10374 | -76.23795 | 1657 ft | 130 kts | 81° |
| 2026-04-24 03:07 | 43.10426 | -76.22583 | 1339 ft | 125 kts | 81° |
| 2026-04-24 03:08 | 43.10508 | -76.21449 | 1176 ft | 116 kts | 81° |
| 2026-04-24 03:08 | 43.10603 | -76.19325 | 912 ft | 111 kts | 85° |
| 2026-04-24 03:08 | 43.10632 | -76.18280 | 856 ft | 112 kts | 88° |
| 2026-04-24 03:09 | 43.10660 | -76.17212 | 812 ft | 112 kts | 86° |
| 2026-04-24 03:09 | 43.10710 | -76.16138 | 738 ft | 113 kts | 87° |
| 2026-04-24 03:09 | 43.10739 | -76.15063 | 662 ft | 113 kts | 87° |
| 2026-04-24 03:09 | 43.10773 | -76.13996 | 582 ft | 113 kts | 86° |
| 2026-04-24 03:10 | 43.10815 | -76.12928 | 487 ft | 112 kts | 88° |
| 2026-04-24 03:10 | 43.10840 | -76.11879 | 424 ft | 106 kts | 85° |
| 2026-04-24 03:10 | 43.10863 | -76.11208 | 423 ft | 25 kts | 86° |
| 2026-04-24 03:10 | 43.10874 | -76.10961 | 420 ft | 29 kts | 86° |
| 2026-04-24 03:11 | 43.10890 | -76.10707 | 418 ft | 0 kts | 55° |
| 2026-04-24 03:11 | 43.10926 | -76.10676 | 420 ft | 8 kts | 359° |
| 2026-04-24 03:11 | 43.10942 | -76.10682 | 415 ft | 0 kts | 330° |
| 2026-04-24 03:12 | 43.10956 | -76.10695 | 418 ft | 10 kts | 323° |
| 2026-04-24 03:12 | 43.11002 | -76.10844 | 414 ft | 27 kts | 275° |
| 2026-04-24 03:12 | 43.10993 | -76.11160 | 422 ft | 36 kts | 267° |
| 2026-04-24 03:13 | 43.10982 | -76.11486 | 422 ft | 34 kts | 267° |
| 2026-04-24 03:13 | 43.10971 | -76.11817 | 418 ft | 35 kts | 265° |
| 2026-04-24 03:13 | 43.10960 | -76.12138 | 425 ft | 33 kts | 267° |
| 2026-04-24 03:13 | 43.10950 | -76.12447 | 426 ft | 32 kts | 267° |
| 2026-04-24 03:14 | 43.10938 | -76.12749 | 427 ft | 31 kts | 267° |
| 2026-04-24 03:14 | 43.11008 | -76.13012 | 427 ft | 31 kts | 314° |
| 2026-04-24 03:14 | 43.11129 | -76.13127 | 425 ft | 2 kts | 30° |
| 2026-04-24 03:14 | 43.11165 | -76.13072 | 417 ft | 13 kts | 47° |
| 2026-04-24 03:15 | 43.11228 | -76.12976 | 422 ft | 0 kts | 48° |